sensor_id;sensor_type;location;lat;lon;timestamp;temperature;humidity
46508;DHT22;32223;53.654;10.014;2023-11-21T00:01:16;7.60;99.90
46508;DHT22;32223;53.654;10.014;2023-11-21T00:03:42;7.60;99.90
46508;DHT22;32223;53.654;10.014;2023-11-21T00:06:08;7.60;99.90
46508;DHT22;32223;53.654;10.014;2023-11-21T00:08:37;7.40;99.90
46508;DHT22;32223;53.654;10.014;2023-11-21T00:11:03;7.50;99.90
46508;DHT22;32223;53.654;10.014;2023-11-21T00:13:31;7.50;99.90
46508;DHT22;32223;53.654;10.014;2023-11-21T00:15:57;7.40;99.90
46508;DHT22;32223;53.654;10.014;2023-11-21T00:18:23;7.40;99.90
46508;DHT22;32223;53.654;10.014;2023-11-21T00:20:48;7.40;99.90
46508;DHT22;32223;53.654;10.014;2023-11-21T00:23:14;7.40;99.90
46508;DHT22;32223;53.654;10.014;2023-11-21T00:25:39;7.40;99.90
46508;DHT22;32223;53.654;10.014;2023-11-21T00:28:05;7.40;99.90
46508;DHT22;32223;53.654;10.014;2023-11-21T00:30:31;7.40;99.90
46508;DHT22;32223;53.654;10.014;2023-11-21T00:32:57;7.30;99.90
46508;DHT22;32223;53.654;10.014;2023-11-21T00:35:23;7.30;99.90
46508;DHT22;32223;53.654;10.014;2023-11-21T00:37:48;7.30;99.90
46508;DHT22;32223;53.654;10.014;2023-11-21T00:40:15;7.20;99.90
46508;DHT22;32223;53.654;10.014;2023-11-21T00:42:41;7.20;99.90
46508;DHT22;32223;53.654;10.014;2023-11-21T00:45:07;7.10;99.90
46508;DHT22;32223;53.654;10.014;2023-11-21T00:47:33;7.10;99.90
46508;DHT22;32223;53.654;10.014;2023-11-21T00:49:59;7.00;99.90
46508;DHT22;32223;53.654;10.014;2023-11-21T00:52:24;7.00;99.90
46508;DHT22;32223;53.654;10.014;2023-11-21T00:54:50;7.00;99.90
46508;DHT22;32223;53.654;10.014;2023-11-21T00:57:16;6.90;99.90
46508;DHT22;32223;53.654;10.014;2023-11-21T00:59:42;6.90;99.90
46508;DHT22;32223;53.654;10.014;2023-11-21T01:02:07;6.90;99.90
46508;DHT22;32223;53.654;10.014;2023-11-21T01:04:35;6.80;99.90
46508;DHT22;32223;53.654;10.014;2023-11-21T01:07:01;6.90;99.90
46508;DHT22;32223;53.654;10.014;2023-11-21T01:09:27;6.80;99.90
46508;DHT22;32223;53.654;10.014;2023-11-21T01:11:53;6.80;99.90
46508;DHT22;32223;53.654;10.014;2023-11-21T01:14:19;6.90;99.90
46508;DHT22;32223;53.654;10.014;2023-11-21T01:16:44;6.80;99.90
46508;DHT22;32223;53.654;10.014;2023-11-21T01:19:10;6.80;99.90
46508;DHT22;32223;53.654;10.014;2023-11-21T01:21:36;6.70;99.90
46508;DHT22;32223;53.654;10.014;2023-11-21T01:24:01;6.70;99.90
46508;DHT22;32223;53.654;10.014;2023-11-21T01:26:28;6.70;99.90
46508;DHT22;32223;53.654;10.014;2023-11-21T01:28:53;6.70;99.90
46508;DHT22;32223;53.654;10.014;2023-11-21T01:31:20;6.70;99.90
46508;DHT22;32223;53.654;10.014;2023-11-21T01:33:46;6.60;99.90
46508;DHT22;32223;53.654;10.014;2023-11-21T01:36:11;6.70;99.90
46508;DHT22;32223;53.654;10.014;2023-11-21T01:38:37;6.60;99.90
46508;DHT22;32223;53.654;10.014;2023-11-21T01:41:03;6.60;99.90
46508;DHT22;32223;53.654;10.014;2023-11-21T01:43:30;6.60;99.90
46508;DHT22;32223;53.654;10.014;2023-11-21T01:45:57;6.60;99.90
46508;DHT22;32223;53.654;10.014;2023-11-21T01:48:24;6.60;99.90
46508;DHT22;32223;53.654;10.014;2023-11-21T01:50:51;6.60;99.90
46508;DHT22;32223;53.654;10.014;2023-11-21T01:53:17;6.60;99.90
46508;DHT22;32223;53.654;10.014;2023-11-21T01:55:45;6.50;99.90
46508;DHT22;32223;53.654;10.014;2023-11-21T01:58:11;6.50;99.90
46508;DHT22;32223;53.654;10.014;2023-11-21T02:00:38;6.60;99.90
46508;DHT22;32223;53.654;10.014;2023-11-21T02:03:04;6.50;99.90
46508;DHT22;32223;53.654;10.014;2023-11-21T02:05:29;6.50;99.90
46508;DHT22;32223;53.654;10.014;2023-11-21T02:07:55;6.50;99.90
46508;DHT22;32223;53.654;10.014;2023-11-21T02:10:22;6.50;99.90
46508;DHT22;32223;53.654;10.014;2023-11-21T02:12:51;6.40;99.90
46508;DHT22;32223;53.654;10.014;2023-11-21T02:15:17;6.40;99.90
46508;DHT22;32223;53.654;10.014;2023-11-21T02:17:47;6.50;99.90
46508;DHT22;32223;53.654;10.014;2023-11-21T02:20:13;6.40;99.90
46508;DHT22;32223;53.654;10.014;2023-11-21T02:22:55;6.30;99.90
46508;DHT22;32223;53.654;10.014;2023-11-21T02:25:33;6.30;99.90
46508;DHT22;32223;53.654;10.014;2023-11-21T02:28:00;6.30;99.90
46508;DHT22;32223;53.654;10.014;2023-11-21T02:30:26;6.30;99.90
46508;DHT22;32223;53.654;10.014;2023-11-21T02:32:53;6.30;99.90
46508;DHT22;32223;53.654;10.014;2023-11-21T02:35:20;6.20;99.90
46508;DHT22;32223;53.654;10.014;2023-11-21T02:37:47;6.30;99.90
46508;DHT22;32223;53.654;10.014;2023-11-21T02:40:13;6.30;99.90
46508;DHT22;32223;53.654;10.014;2023-11-21T02:42:49;6.30;99.90
46508;DHT22;32223;53.654;10.014;2023-11-21T02:45:18;6.20;99.90
46508;DHT22;32223;53.654;10.014;2023-11-21T02:47:44;6.20;99.90
46508;DHT22;32223;53.654;10.014;2023-11-21T02:50:10;6.20;99.90
46508;DHT22;32223;53.654;10.014;2023-11-21T02:52:36;6.20;99.90
46508;DHT22;32223;53.654;10.014;2023-11-21T02:55:02;6.10;99.90
46508;DHT22;32223;53.654;10.014;2023-11-21T02:57:28;6.20;99.90
46508;DHT22;32223;53.654;10.014;2023-11-21T02:59:54;6.10;99.90
46508;DHT22;32223;53.654;10.014;2023-11-21T03:02:20;6.10;99.90
46508;DHT22;32223;53.654;10.014;2023-11-21T03:04:45;6.00;99.90
46508;DHT22;32223;53.654;10.014;2023-11-21T03:07:13;6.00;99.90
46508;DHT22;32223;53.654;10.014;2023-11-21T03:09:39;6.00;99.90
46508;DHT22;32223;53.654;10.014;2023-11-21T03:12:05;6.00;99.90
46508;DHT22;32223;53.654;10.014;2023-11-21T03:14:31;5.90;99.90
46508;DHT22;32223;53.654;10.014;2023-11-21T03:16:57;5.90;99.90
46508;DHT22;32223;53.654;10.014;2023-11-21T03:19:22;5.90;99.90
46508;DHT22;32223;53.654;10.014;2023-11-21T03:21:48;5.90;99.90
46508;DHT22;32223;53.654;10.014;2023-11-21T03:24:14;5.90;99.90
46508;DHT22;32223;53.654;10.014;2023-11-21T03:26:45;5.80;99.90
46508;DHT22;32223;53.654;10.014;2023-11-21T03:29:12;5.80;99.90
46508;DHT22;32223;53.654;10.014;2023-11-21T03:31:39;5.80;99.90
46508;DHT22;32223;53.654;10.014;2023-11-21T03:34:04;5.80;99.90
46508;DHT22;32223;53.654;10.014;2023-11-21T03:36:30;5.80;99.90
46508;DHT22;32223;53.654;10.014;2023-11-21T03:38:56;5.90;99.90
46508;DHT22;32223;53.654;10.014;2023-11-21T03:41:21;5.80;99.90
46508;DHT22;32223;53.654;10.014;2023-11-21T03:43:47;5.90;99.90
46508;DHT22;32223;53.654;10.014;2023-11-21T03:46:12;5.80;99.90
46508;DHT22;32223;53.654;10.014;2023-11-21T03:48:38;5.80;99.90
46508;DHT22;32223;53.654;10.014;2023-11-21T03:51:04;5.80;99.90
46508;DHT22;32223;53.654;10.014;2023-11-21T03:53:30;5.90;99.90
46508;DHT22;32223;53.654;10.014;2023-11-21T03:55:55;5.90;99.90
46508;DHT22;32223;53.654;10.014;2023-11-21T03:58:21;5.90;99.90
46508;DHT22;32223;53.654;10.014;2023-11-21T04:00:47;5.90;99.90
46508;DHT22;32223;53.654;10.014;2023-11-21T04:03:14;5.90;99.90
46508;DHT22;32223;53.654;10.014;2023-11-21T04:05:41;6.00;99.90
46508;DHT22;32223;53.654;10.014;2023-11-21T04:08:06;6.00;99.90
46508;DHT22;32223;53.654;10.014;2023-11-21T04:10:32;5.90;99.90
46508;DHT22;32223;53.654;10.014;2023-11-21T04:12:58;5.90;99.90
46508;DHT22;32223;53.654;10.014;2023-11-21T04:15:23;5.90;99.90
46508;DHT22;32223;53.654;10.014;2023-11-21T04:17:49;6.00;99.90
46508;DHT22;32223;53.654;10.014;2023-11-21T04:20:15;5.90;99.90
46508;DHT22;32223;53.654;10.014;2023-11-21T04:22:41;6.00;99.90
46508;DHT22;32223;53.654;10.014;2023-11-21T04:25:10;6.00;99.90
46508;DHT22;32223;53.654;10.014;2023-11-21T04:27:36;6.00;99.90
46508;DHT22;32223;53.654;10.014;2023-11-21T04:30:03;6.00;99.90
46508;DHT22;32223;53.654;10.014;2023-11-21T04:32:29;6.00;99.90
46508;DHT22;32223;53.654;10.014;2023-11-21T04:34:54;6.00;99.90
46508;DHT22;32223;53.654;10.014;2023-11-21T04:37:20;6.00;99.90
46508;DHT22;32223;53.654;10.014;2023-11-21T04:39:45;6.00;99.90
46508;DHT22;32223;53.654;10.014;2023-11-21T04:42:11;6.00;99.90
46508;DHT22;32223;53.654;10.014;2023-11-21T04:44:38;6.00;99.90
46508;DHT22;32223;53.654;10.014;2023-11-21T04:47:06;6.00;99.90
46508;DHT22;32223;53.654;10.014;2023-11-21T04:49:32;6.00;99.90
46508;DHT22;32223;53.654;10.014;2023-11-21T04:51:57;6.00;99.90
46508;DHT22;32223;53.654;10.014;2023-11-21T04:54:23;6.00;99.90
46508;DHT22;32223;53.654;10.014;2023-11-21T04:56:49;6.00;99.90
46508;DHT22;32223;53.654;10.014;2023-11-21T04:59:14;6.00;99.90
46508;DHT22;32223;53.654;10.014;2023-11-21T05:01:40;5.90;99.90
46508;DHT22;32223;53.654;10.014;2023-11-21T05:04:05;6.00;99.90
46508;DHT22;32223;53.654;10.014;2023-11-21T05:06:31;5.90;99.90
46508;DHT22;32223;53.654;10.014;2023-11-21T05:08:58;5.90;99.90
46508;DHT22;32223;53.654;10.014;2023-11-21T05:11:27;5.90;99.90
46508;DHT22;32223;53.654;10.014;2023-11-21T05:13:54;5.90;99.90
46508;DHT22;32223;53.654;10.014;2023-11-21T05:16:25;5.90;99.90
46508;DHT22;32223;53.654;10.014;2023-11-21T05:18:52;5.90;99.90
46508;DHT22;32223;53.654;10.014;2023-11-21T05:21:18;5.90;99.90
46508;DHT22;32223;53.654;10.014;2023-11-21T05:23:46;5.90;99.90
46508;DHT22;32223;53.654;10.014;2023-11-21T05:26:15;5.90;99.90
46508;DHT22;32223;53.654;10.014;2023-11-21T05:28:40;5.90;99.90
46508;DHT22;32223;53.654;10.014;2023-11-21T05:31:06;5.90;99.90
46508;DHT22;32223;53.654;10.014;2023-11-21T05:33:31;5.90;99.90
46508;DHT22;32223;53.654;10.014;2023-11-21T05:35:58;5.90;99.90
46508;DHT22;32223;53.654;10.014;2023-11-21T05:38:24;5.90;99.90
46508;DHT22;32223;53.654;10.014;2023-11-21T05:40:49;5.90;99.90
46508;DHT22;32223;53.654;10.014;2023-11-21T05:43:15;5.90;99.90
46508;DHT22;32223;53.654;10.014;2023-11-21T05:45:41;5.90;99.90
46508;DHT22;32223;53.654;10.014;2023-11-21T05:48:06;5.90;99.90
46508;DHT22;32223;53.654;10.014;2023-11-21T05:50:32;6.00;99.90
46508;DHT22;32223;53.654;10.014;2023-11-21T05:52:58;6.00;99.90
46508;DHT22;32223;53.654;10.014;2023-11-21T05:55:27;6.00;99.90
46508;DHT22;32223;53.654;10.014;2023-11-21T05:57:52;6.00;99.90
46508;DHT22;32223;53.654;10.014;2023-11-21T06:00:18;6.00;99.90
46508;DHT22;32223;53.654;10.014;2023-11-21T06:02:54;6.00;99.90
46508;DHT22;32223;53.654;10.014;2023-11-21T06:05:22;6.00;99.90
46508;DHT22;32223;53.654;10.014;2023-11-21T06:07:52;6.00;99.90
46508;DHT22;32223;53.654;10.014;2023-11-21T06:10:19;6.00;99.90
46508;DHT22;32223;53.654;10.014;2023-11-21T06:12:45;6.00;99.90
46508;DHT22;32223;53.654;10.014;2023-11-21T06:15:11;6.00;99.90
46508;DHT22;32223;53.654;10.014;2023-11-21T06:17:41;6.00;99.90
46508;DHT22;32223;53.654;10.014;2023-11-21T06:20:08;6.00;99.90
46508;DHT22;32223;53.654;10.014;2023-11-21T06:22:38;6.00;99.90
46508;DHT22;32223;53.654;10.014;2023-11-21T06:25:05;6.00;99.90
46508;DHT22;32223;53.654;10.014;2023-11-21T06:27:34;6.00;99.90
46508;DHT22;32223;53.654;10.014;2023-11-21T06:30:02;6.00;99.90
46508;DHT22;32223;53.654;10.014;2023-11-21T06:32:27;6.00;99.90
46508;DHT22;32223;53.654;10.014;2023-11-21T06:34:55;6.00;99.90
46508;DHT22;32223;53.654;10.014;2023-11-21T06:37:21;6.00;99.90
46508;DHT22;32223;53.654;10.014;2023-11-21T06:39:49;6.00;99.90
46508;DHT22;32223;53.654;10.014;2023-11-21T06:42:14;6.00;99.90
46508;DHT22;32223;53.654;10.014;2023-11-21T06:44:40;6.00;99.90
46508;DHT22;32223;53.654;10.014;2023-11-21T06:47:07;6.00;99.90
46508;DHT22;32223;53.654;10.014;2023-11-21T06:49:32;6.00;99.90
46508;DHT22;32223;53.654;10.014;2023-11-21T06:51:58;6.00;99.90
46508;DHT22;32223;53.654;10.014;2023-11-21T06:54:26;6.00;99.90
46508;DHT22;32223;53.654;10.014;2023-11-21T06:56:51;6.00;99.90
46508;DHT22;32223;53.654;10.014;2023-11-21T06:59:18;6.10;99.90
46508;DHT22;32223;53.654;10.014;2023-11-21T07:01:44;6.00;99.90
46508;DHT22;32223;53.654;10.014;2023-11-21T07:04:10;6.00;99.90
46508;DHT22;32223;53.654;10.014;2023-11-21T07:06:35;6.00;99.90
46508;DHT22;32223;53.654;10.014;2023-11-21T07:09:01;6.10;99.90
46508;DHT22;32223;53.654;10.014;2023-11-21T07:11:28;6.10;99.90
46508;DHT22;32223;53.654;10.014;2023-11-21T07:13:54;6.10;99.90
46508;DHT22;32223;53.654;10.014;2023-11-21T07:16:19;6.00;99.90
46508;DHT22;32223;53.654;10.014;2023-11-21T07:18:46;6.00;99.90
46508;DHT22;32223;53.654;10.014;2023-11-21T07:21:11;6.00;99.90
46508;DHT22;32223;53.654;10.014;2023-11-21T07:23:41;6.00;99.90
46508;DHT22;32223;53.654;10.014;2023-11-21T07:26:07;6.10;99.90
46508;DHT22;32223;53.654;10.014;2023-11-21T07:28:35;6.10;99.90
46508;DHT22;32223;53.654;10.014;2023-11-21T07:31:01;6.10;99.90
46508;DHT22;32223;53.654;10.014;2023-11-21T07:33:27;6.10;99.90
46508;DHT22;32223;53.654;10.014;2023-11-21T07:35:52;6.10;99.90
46508;DHT22;32223;53.654;10.014;2023-11-21T07:38:18;6.00;99.90
46508;DHT22;32223;53.654;10.014;2023-11-21T07:40:44;6.10;99.90
46508;DHT22;32223;53.654;10.014;2023-11-21T07:43:09;6.10;99.90
46508;DHT22;32223;53.654;10.014;2023-11-21T07:45:36;6.20;99.90
46508;DHT22;32223;53.654;10.014;2023-11-21T07:48:02;6.20;99.90
46508;DHT22;32223;53.654;10.014;2023-11-21T07:50:29;6.20;99.90
46508;DHT22;32223;53.654;10.014;2023-11-21T07:52:55;6.20;99.90
46508;DHT22;32223;53.654;10.014;2023-11-21T07:55:21;6.30;99.90
46508;DHT22;32223;53.654;10.014;2023-11-21T07:57:46;6.30;99.90
46508;DHT22;32223;53.654;10.014;2023-11-21T08:00:12;6.30;99.90
46508;DHT22;32223;53.654;10.014;2023-11-21T08:02:41;6.30;99.90
46508;DHT22;32223;53.654;10.014;2023-11-21T08:05:08;6.30;99.90
46508;DHT22;32223;53.654;10.014;2023-11-21T08:07:34;6.30;99.90
46508;DHT22;32223;53.654;10.014;2023-11-21T08:10:00;6.30;99.90
46508;DHT22;32223;53.654;10.014;2023-11-21T08:12:25;6.40;99.90
46508;DHT22;32223;53.654;10.014;2023-11-21T08:14:53;6.40;99.90
46508;DHT22;32223;53.654;10.014;2023-11-21T08:17:18;6.30;99.90
46508;DHT22;32223;53.654;10.014;2023-11-21T08:19:45;6.40;99.90
46508;DHT22;32223;53.654;10.014;2023-11-21T08:22:15;6.40;99.90
46508;DHT22;32223;53.654;10.014;2023-11-21T08:24:41;6.40;99.90
46508;DHT22;32223;53.654;10.014;2023-11-21T08:27:07;6.40;99.90
46508;DHT22;32223;53.654;10.014;2023-11-21T08:29:32;6.40;99.90
46508;DHT22;32223;53.654;10.014;2023-11-21T08:31:58;6.50;99.90
46508;DHT22;32223;53.654;10.014;2023-11-21T08:34:25;6.40;99.90
46508;DHT22;32223;53.654;10.014;2023-11-21T08:36:50;6.60;99.90
46508;DHT22;32223;53.654;10.014;2023-11-21T08:39:16;6.60;99.90
46508;DHT22;32223;53.654;10.014;2023-11-21T08:41:44;6.50;99.90
46508;DHT22;32223;53.654;10.014;2023-11-21T08:44:10;6.60;99.90
46508;DHT22;32223;53.654;10.014;2023-11-21T08:46:36;6.60;99.90
46508;DHT22;32223;53.654;10.014;2023-11-21T08:49:03;6.50;99.90
46508;DHT22;32223;53.654;10.014;2023-11-21T08:51:29;6.60;99.90
46508;DHT22;32223;53.654;10.014;2023-11-21T08:53:54;6.50;99.90
46508;DHT22;32223;53.654;10.014;2023-11-21T08:56:24;6.50;99.90
46508;DHT22;32223;53.654;10.014;2023-11-21T08:58:50;6.40;99.90
46508;DHT22;32223;53.654;10.014;2023-11-21T09:01:16;6.30;99.90
46508;DHT22;32223;53.654;10.014;2023-11-21T09:03:42;6.30;99.90
46508;DHT22;32223;53.654;10.014;2023-11-21T09:06:09;6.30;99.90
46508;DHT22;32223;53.654;10.014;2023-11-21T09:08:35;6.30;99.90
46508;DHT22;32223;53.654;10.014;2023-11-21T09:11:01;6.20;99.90
46508;DHT22;32223;53.654;10.014;2023-11-21T09:13:26;6.30;99.90
46508;DHT22;32223;53.654;10.014;2023-11-21T09:15:52;6.30;99.90
46508;DHT22;32223;53.654;10.014;2023-11-21T09:18:18;6.30;99.90
46508;DHT22;32223;53.654;10.014;2023-11-21T09:20:44;6.20;99.90
46508;DHT22;32223;53.654;10.014;2023-11-21T09:23:10;6.30;99.90
46508;DHT22;32223;53.654;10.014;2023-11-21T09:25:35;6.20;99.90
46508;DHT22;32223;53.654;10.014;2023-11-21T09:28:03;6.20;99.90
46508;DHT22;32223;53.654;10.014;2023-11-21T09:30:33;6.20;99.90
46508;DHT22;32223;53.654;10.014;2023-11-21T09:32:59;6.20;99.90
46508;DHT22;32223;53.654;10.014;2023-11-21T09:35:26;6.20;99.90
46508;DHT22;32223;53.654;10.014;2023-11-21T09:37:53;6.20;99.90
46508;DHT22;32223;53.654;10.014;2023-11-21T09:40:21;6.20;99.90
46508;DHT22;32223;53.654;10.014;2023-11-21T09:42:57;6.20;99.90
46508;DHT22;32223;53.654;10.014;2023-11-21T09:45:27;6.20;99.90
46508;DHT22;32223;53.654;10.014;2023-11-21T09:47:55;6.30;99.90
46508;DHT22;32223;53.654;10.014;2023-11-21T09:50:24;6.30;99.90
46508;DHT22;32223;53.654;10.014;2023-11-21T09:53:03;6.30;99.90
46508;DHT22;32223;53.654;10.014;2023-11-21T09:55:34;6.40;99.90
46508;DHT22;32223;53.654;10.014;2023-11-21T09:58:04;6.40;99.90
46508;DHT22;32223;53.654;10.014;2023-11-21T10:00:33;6.40;99.90
46508;DHT22;32223;53.654;10.014;2023-11-21T10:02:59;6.40;99.90
46508;DHT22;32223;53.654;10.014;2023-11-21T10:05:25;6.50;99.90
46508;DHT22;32223;53.654;10.014;2023-11-21T10:07:51;6.60;99.90
46508;DHT22;32223;53.654;10.014;2023-11-21T10:10:19;6.70;99.90
46508;DHT22;32223;53.654;10.014;2023-11-21T10:12:49;6.70;99.90
46508;DHT22;32223;53.654;10.014;2023-11-21T10:15:22;6.80;99.90
46508;DHT22;32223;53.654;10.014;2023-11-21T10:17:49;6.80;99.90
46508;DHT22;32223;53.654;10.014;2023-11-21T10:20:16;6.80;99.90
46508;DHT22;32223;53.654;10.014;2023-11-21T10:22:43;6.80;99.90
46508;DHT22;32223;53.654;10.014;2023-11-21T10:25:09;6.90;99.90
46508;DHT22;32223;53.654;10.014;2023-11-21T10:27:37;6.80;99.90
46508;DHT22;32223;53.654;10.014;2023-11-21T10:30:05;6.90;99.90
46508;DHT22;32223;53.654;10.014;2023-11-21T10:32:31;6.90;99.90
46508;DHT22;32223;53.654;10.014;2023-11-21T10:34:59;6.90;99.90
46508;DHT22;32223;53.654;10.014;2023-11-21T10:37:38;6.90;99.90
46508;DHT22;32223;53.654;10.014;2023-11-21T10:40:09;6.90;99.90
46508;DHT22;32223;53.654;10.014;2023-11-21T10:42:41;6.90;99.90
46508;DHT22;32223;53.654;10.014;2023-11-21T10:45:10;6.80;99.90
46508;DHT22;32223;53.654;10.014;2023-11-21T10:47:40;6.80;99.90
46508;DHT22;32223;53.654;10.014;2023-11-21T10:50:06;6.70;99.90
46508;DHT22;32223;53.654;10.014;2023-11-21T10:52:34;6.70;99.90
46508;DHT22;32223;53.654;10.014;2023-11-21T10:55:01;6.60;99.90
46508;DHT22;32223;53.654;10.014;2023-11-21T10:57:29;6.50;99.90
46508;DHT22;32223;53.654;10.014;2023-11-21T10:59:56;6.50;99.90
46508;DHT22;32223;53.654;10.014;2023-11-21T11:02:24;6.60;99.90
46508;DHT22;32223;53.654;10.014;2023-11-21T11:04:54;6.70;99.90
46508;DHT22;32223;53.654;10.014;2023-11-21T11:07:26;6.70;99.90
46508;DHT22;32223;53.654;10.014;2023-11-21T11:09:55;6.60;99.90
46508;DHT22;32223;53.654;10.014;2023-11-21T11:12:21;6.60;99.90
46508;DHT22;32223;53.654;10.014;2023-11-21T11:14:48;6.70;99.90
46508;DHT22;32223;53.654;10.014;2023-11-21T11:17:14;6.80;99.90
46508;DHT22;32223;53.654;10.014;2023-11-21T11:19:40;6.70;99.90
46508;DHT22;32223;53.654;10.014;2023-11-21T11:27:48;6.50;99.90
46508;DHT22;32223;53.654;10.014;2023-11-21T11:30:42;6.50;99.90
46508;DHT22;32223;53.654;10.014;2023-11-21T11:38:39;6.60;99.90
46508;DHT22;32223;53.654;10.014;2023-11-21T11:41:10;6.60;99.90
46508;DHT22;32223;53.654;10.014;2023-11-21T11:43:36;6.70;99.90
46508;DHT22;32223;53.654;10.014;2023-11-21T11:46:11;6.60;99.90
46508;DHT22;32223;53.654;10.014;2023-11-21T11:48:40;6.50;99.90
46508;DHT22;32223;53.654;10.014;2023-11-21T11:51:13;6.60;99.90
46508;DHT22;32223;53.654;10.014;2023-11-21T11:53:47;6.70;99.90
46508;DHT22;32223;53.654;10.014;2023-11-21T11:56:33;6.60;99.90
46508;DHT22;32223;53.654;10.014;2023-11-21T11:59:03;6.70;99.90
46508;DHT22;32223;53.654;10.014;2023-11-21T12:01:31;6.60;99.90
46508;DHT22;32223;53.654;10.014;2023-11-21T12:06:46;6.60;99.90
46508;DHT22;32223;53.654;10.014;2023-11-21T12:09:23;6.50;99.90
46508;DHT22;32223;53.654;10.014;2023-11-21T12:11:49;6.40;99.90
46508;DHT22;32223;53.654;10.014;2023-11-21T12:14:15;6.30;99.90
46508;DHT22;32223;53.654;10.014;2023-11-21T12:16:42;6.30;99.90
46508;DHT22;32223;53.654;10.014;2023-11-21T12:19:14;6.30;99.90
46508;DHT22;32223;53.654;10.014;2023-11-21T12:21:40;6.30;99.90
46508;DHT22;32223;53.654;10.014;2023-11-21T12:24:11;6.20;99.90
46508;DHT22;32223;53.654;10.014;2023-11-21T12:26:39;6.20;99.90
46508;DHT22;32223;53.654;10.014;2023-11-21T12:29:05;6.10;99.90
46508;DHT22;32223;53.654;10.014;2023-11-21T12:31:33;6.00;99.90
46508;DHT22;32223;53.654;10.014;2023-11-21T12:34:00;5.90;99.90
46508;DHT22;32223;53.654;10.014;2023-11-21T12:36:26;6.00;99.90
46508;DHT22;32223;53.654;10.014;2023-11-21T12:38:52;6.10;99.90
46508;DHT22;32223;53.654;10.014;2023-11-21T12:41:17;6.20;99.90
46508;DHT22;32223;53.654;10.014;2023-11-21T12:43:43;6.10;99.90
46508;DHT22;32223;53.654;10.014;2023-11-21T12:46:10;6.10;99.90
46508;DHT22;32223;53.654;10.014;2023-11-21T12:48:39;6.10;99.90
46508;DHT22;32223;53.654;10.014;2023-11-21T12:51:09;6.10;99.90
46508;DHT22;32223;53.654;10.014;2023-11-21T12:53:40;6.00;99.90
46508;DHT22;32223;53.654;10.014;2023-11-21T12:56:07;6.00;99.90
46508;DHT22;32223;53.654;10.014;2023-11-21T12:58:38;6.00;99.90
46508;DHT22;32223;53.654;10.014;2023-11-21T13:01:07;6.00;99.90
46508;DHT22;32223;53.654;10.014;2023-11-21T13:03:45;6.00;99.90
46508;DHT22;32223;53.654;10.014;2023-11-21T13:06:13;5.90;99.90
46508;DHT22;32223;53.654;10.014;2023-11-21T13:08:38;5.90;99.90
46508;DHT22;32223;53.654;10.014;2023-11-21T13:11:05;6.00;99.90
46508;DHT22;32223;53.654;10.014;2023-11-21T13:13:31;5.90;99.90
46508;DHT22;32223;53.654;10.014;2023-11-21T13:15:59;5.80;99.90
46508;DHT22;32223;53.654;10.014;2023-11-21T13:18:33;5.90;99.90
46508;DHT22;32223;53.654;10.014;2023-11-21T13:21:02;5.90;99.90
46508;DHT22;32223;53.654;10.014;2023-11-21T13:23:39;5.80;99.90
46508;DHT22;32223;53.654;10.014;2023-11-21T13:26:06;5.70;99.90
46508;DHT22;32223;53.654;10.014;2023-11-21T13:28:32;5.70;99.90
46508;DHT22;32223;53.654;10.014;2023-11-21T13:31:03;5.70;99.90
46508;DHT22;32223;53.654;10.014;2023-11-21T13:33:37;5.70;99.90
46508;DHT22;32223;53.654;10.014;2023-11-21T13:36:08;5.70;99.90
46508;DHT22;32223;53.654;10.014;2023-11-21T13:38:35;5.70;99.90
46508;DHT22;32223;53.654;10.014;2023-11-21T13:41:03;5.70;99.90
46508;DHT22;32223;53.654;10.014;2023-11-21T13:43:32;5.70;99.90
46508;DHT22;32223;53.654;10.014;2023-11-21T13:45:59;5.70;99.90
46508;DHT22;32223;53.654;10.014;2023-11-21T13:48:33;5.70;99.90
46508;DHT22;32223;53.654;10.014;2023-11-21T13:51:14;5.70;99.90
46508;DHT22;32223;53.654;10.014;2023-11-21T13:53:44;5.80;99.90
46508;DHT22;32223;53.654;10.014;2023-11-21T13:56:11;5.80;99.90
46508;DHT22;32223;53.654;10.014;2023-11-21T13:58:38;5.70;99.90
46508;DHT22;32223;53.654;10.014;2023-11-21T14:01:20;5.80;99.90
46508;DHT22;32223;53.654;10.014;2023-11-21T14:04:02;5.70;99.90
46508;DHT22;32223;53.654;10.014;2023-11-21T14:06:49;5.70;99.90
46508;DHT22;32223;53.654;10.014;2023-11-21T14:09:26;5.60;99.90
46508;DHT22;32223;53.654;10.014;2023-11-21T14:11:58;5.70;99.90
46508;DHT22;32223;53.654;10.014;2023-11-21T14:14:26;5.60;99.90
46508;DHT22;32223;53.654;10.014;2023-11-21T14:16:54;5.60;99.90
46508;DHT22;32223;53.654;10.014;2023-11-21T14:19:21;5.50;99.90
46508;DHT22;32223;53.654;10.014;2023-11-21T14:21:47;5.50;99.90
46508;DHT22;32223;53.654;10.014;2023-11-21T14:24:18;5.40;99.90
46508;DHT22;32223;53.654;10.014;2023-11-21T14:26:47;5.40;99.90
46508;DHT22;32223;53.654;10.014;2023-11-21T14:29:15;5.30;99.90
46508;DHT22;32223;53.654;10.014;2023-11-21T14:31:45;5.30;99.90
46508;DHT22;32223;53.654;10.014;2023-11-21T14:34:11;5.30;99.90
46508;DHT22;32223;53.654;10.014;2023-11-21T14:36:38;5.20;99.90
46508;DHT22;32223;53.654;10.014;2023-11-21T14:39:05;5.20;99.90
46508;DHT22;32223;53.654;10.014;2023-11-21T14:41:41;5.10;99.90
46508;DHT22;32223;53.654;10.014;2023-11-21T14:44:08;5.10;99.90
46508;DHT22;32223;53.654;10.014;2023-11-21T14:46:37;5.10;99.90
46508;DHT22;32223;53.654;10.014;2023-11-21T14:49:05;5.00;99.90
46508;DHT22;32223;53.654;10.014;2023-11-21T14:51:53;5.00;99.90
46508;DHT22;32223;53.654;10.014;2023-11-21T14:54:29;5.00;99.90
46508;DHT22;32223;53.654;10.014;2023-11-21T14:57:12;5.00;99.90
46508;DHT22;32223;53.654;10.014;2023-11-21T14:59:47;5.00;99.90
46508;DHT22;32223;53.654;10.014;2023-11-21T15:02:17;5.00;99.90
46508;DHT22;32223;53.654;10.014;2023-11-21T15:04:50;5.00;99.90
46508;DHT22;32223;53.654;10.014;2023-11-21T15:07:18;4.90;99.90
46508;DHT22;32223;53.654;10.014;2023-11-21T15:09:44;4.90;99.90
46508;DHT22;32223;53.654;10.014;2023-11-21T15:12:11;5.00;99.90
46508;DHT22;32223;53.654;10.014;2023-11-21T15:14:51;4.90;99.90
46508;DHT22;32223;53.654;10.014;2023-11-21T15:17:23;4.90;99.90
46508;DHT22;32223;53.654;10.014;2023-11-21T15:19:52;4.90;99.90
46508;DHT22;32223;53.654;10.014;2023-11-21T15:22:18;4.90;99.90
46508;DHT22;32223;53.654;10.014;2023-11-21T15:24:44;4.90;99.90
46508;DHT22;32223;53.654;10.014;2023-11-21T15:27:13;4.90;99.90
46508;DHT22;32223;53.654;10.014;2023-11-21T15:29:39;4.90;99.90
46508;DHT22;32223;53.654;10.014;2023-11-21T15:32:06;4.90;99.90
46508;DHT22;32223;53.654;10.014;2023-11-21T15:34:36;4.90;99.90
46508;DHT22;32223;53.654;10.014;2023-11-21T15:37:03;4.90;99.90
46508;DHT22;32223;53.654;10.014;2023-11-21T15:39:29;4.90;99.90
46508;DHT22;32223;53.654;10.014;2023-11-21T15:41:56;4.90;99.90
46508;DHT22;32223;53.654;10.014;2023-11-21T15:44:22;4.90;99.90
46508;DHT22;32223;53.654;10.014;2023-11-21T15:46:49;4.80;99.90